Carbondale, CO (81623)

12:12 PM MDT on August 17, 2017 (GMT -0600)
Tenth and Colorado | | Change Station

Elev 6181 ft 39.40 °N, 107.22 °W | Updated 15 seconds ago

Partly Cloudy
Partly Cloudy
79.2 °F
Feels Like 78 °F
N
0.0
Wind Variable Wind from West
Gusts 4.0 mph

Today
High -- | Low -- °F
--% Chance of Precip.
Yesterday
High -- | Low -- °F
Precip. -- in
Pressure 30.01 in
Visibility 10.0 miles
Clouds Scattered Clouds 11000 ft
Heat Index 78 °F
Dew Point 22 °F
Humidity 12%
Rainfall 0.00 in
Snow Depth Not available.
6:23 AM 8:01 PM
Waning Crescent, 21% visible
METAR KASE 171753Z 33009G15KT 10SM SCT110 22/01 A3035 RMK AO2 SLP161 T02170006 10228 20061 58006
Pressure 30.01 in
Visibility 10.0 miles
Clouds Scattered Clouds 11000 ft
Heat Index 78 °F
Dew Point 22 °F
Humidity 12%
Rainfall 0.00 in
Snow Depth Not available.
6:23 AM 8:01 PM
Waning Crescent, 21% visible
METAR KASE 171753Z 33009G15KT 10SM SCT110 22/01 A3035 RMK AO2 SLP161 T02170006 10228 20061 58006

Get Severe Weather Alerts

Thanks for signing up!

Be on the lookout for a verification email in your inbox.

You'll start receiving the daily forecast at 6 AM.

×

10-Day Weather Forecast

Almanac

Astronomy

Aug. 17, 2017 Rise Set
Actual Time
Civil Twilight
Nautical Twilight
Astronomical Twilight
Moon
Length of Visible Light
Length of Day
Tomorrow will be .
, % of the Moon is Illuminated

Today's Extremes

State Highs State Lows

Community

WunderPhotos

Category 6

Welcome to Category 6. This is the collective home for Weather Underground's featured writeups by Dr. Jeff Masters (right), Bob Henson (left), Chris Burt, and other regular contributors.

Nearby

Air Quality

  Air Quality AQ Index Pollutant
Not available.

Snow Depth

Station Depth Elevation

Earthquake Activity

City Distance Mag. Time & Date
Minimum magnitude displayed is 2.5.

Coastal Water Temperatures

Place Temperature

Stations

Nearby Weather Stations

Station Location Temp. Windchill Dew Point Humidity Wind Precip. Elev Updated Type
                   

Watches & Warnings

There are currently no watches in effect.